createdAt,value
2022-12-08T00:09:05.837Z,1.30
2022-12-08T00:14:08.333Z,1.13
2022-12-08T00:19:10.764Z,1.20
2022-12-08T00:24:13.452Z,0.77
2022-12-08T00:34:20.640Z,0.57
2022-12-08T00:39:23.191Z,0.90
2022-12-08T00:44:26.350Z,1.92
2022-12-08T00:49:28.892Z,1.05
2022-12-08T00:54:31.530Z,1.00
2022-12-08T00:59:34.129Z,1.23
2022-12-08T01:04:36.770Z,0.93
2022-12-08T01:14:41.736Z,0.73
2022-12-08T01:19:46.453Z,1.27
2022-12-08T01:24:48.910Z,1.95
2022-12-08T01:29:51.897Z,1.38
2022-12-08T01:34:54.347Z,1.15
2022-12-08T01:39:56.863Z,1.35
2022-12-08T01:45:03.099Z,1.33
2022-12-08T01:50:09.078Z,1.02
2022-12-08T01:55:20.919Z,0.77
2022-12-08T02:00:24.247Z,0.93
2022-12-08T02:05:33.588Z,1.60
2022-12-08T02:10:40.039Z,1.63
2022-12-08T02:16:02.286Z,2.47
2022-12-08T02:21:14.297Z,1.02
2022-12-08T02:26:44.502Z,0.88
2022-12-08T02:32:22.094Z,1.60
2022-12-08T02:37:32.375Z,1.55
2022-12-08T02:43:02.610Z,2.10
2022-12-08T02:48:06.136Z,1.42
2022-12-08T02:58:36.480Z,1.75
2022-12-08T03:04:11.138Z,1.58
2022-12-08T03:09:40.187Z,2.13
2022-12-08T03:14:47.762Z,1.95
2022-12-08T03:19:50.526Z,2.10
2022-12-08T03:24:53.946Z,1.98
2022-12-08T03:29:58.895Z,2.03
2022-12-08T03:35:04.666Z,1.88
2022-12-08T03:40:09.603Z,1.27
2022-12-08T03:45:12.439Z,2.25
2022-12-08T03:50:14.934Z,1.92
2022-12-08T04:00:19.936Z,1.52
2022-12-08T04:05:22.465Z,1.65
2022-12-08T04:15:27.215Z,2.20
2022-12-08T04:25:32.059Z,0.93
2022-12-08T04:35:37.203Z,2.28
2022-12-08T04:40:39.978Z,1.38
2022-12-08T04:45:43.123Z,2.53
2022-12-08T04:50:46.297Z,1.77
2022-12-08T04:55:49.950Z,2.70
2022-12-08T05:00:52.547Z,2.67
2022-12-08T05:05:59.556Z,2.95
2022-12-08T05:11:06.687Z,2.50
2022-12-08T05:16:12.564Z,1.88
2022-12-08T05:21:15.258Z,3.17
2022-12-08T05:26:17.841Z,1.30
2022-12-08T05:31:20.629Z,2.85
2022-12-08T05:36:23.182Z,4.78
2022-12-08T05:41:25.849Z,2.95
2022-12-08T05:46:28.853Z,3.60
2022-12-08T05:51:31.900Z,3.22
2022-12-08T05:56:37.604Z,2.55
2022-12-08T06:01:40.201Z,3.25
2022-12-08T06:06:42.677Z,3.45
2022-12-08T06:11:46.781Z,3.35
2022-12-08T06:16:49.264Z,4.53
2022-12-08T06:21:51.744Z,3.65
2022-12-08T06:26:54.269Z,4.30
2022-12-08T06:31:57.102Z,2.92
2022-12-08T06:36:59.823Z,2.03
2022-12-08T06:42:20.788Z,2.40
2022-12-08T06:47:26.209Z,1.65
2022-12-08T06:52:28.958Z,2.25
2022-12-08T06:57:31.455Z,3.90
2022-12-08T07:02:34.030Z,2.10
2022-12-08T07:07:36.636Z,3.35
2022-12-08T07:12:39.172Z,3.97
2022-12-08T07:17:41.707Z,4.07
2022-12-08T07:22:54.311Z,2.38
2022-12-08T07:27:56.865Z,3.80
2022-12-08T07:32:59.350Z,4.28
2022-12-08T07:38:01.824Z,4.25
2022-12-08T07:43:04.281Z,2.55
2022-12-08T07:48:07.334Z,3.55
2022-12-08T07:53:09.850Z,3.70
2022-12-08T07:58:12.547Z,3.17
2022-12-08T08:03:15.210Z,4.43
2022-12-08T08:08:18.540Z,4.15
2022-12-08T08:13:21.165Z,3.13
2022-12-08T08:18:23.673Z,2.88
2022-12-08T08:28:29.364Z,3.55
2022-12-08T08:33:32.449Z,2.65
2022-12-08T08:38:36.542Z,2.15
2022-12-08T08:43:39.552Z,3.22
2022-12-08T08:48:42.692Z,4.28
2022-12-08T08:53:45.210Z,2.90
2022-12-08T08:58:49.660Z,2.58
2022-12-08T09:03:53.263Z,2.15
2022-12-08T09:08:55.816Z,4.60
2022-12-08T09:13:58.282Z,3.25
2022-12-08T09:19:00.805Z,2.88
2022-12-08T09:24:03.387Z,3.42
2022-12-08T09:29:05.914Z,3.17
2022-12-08T09:34:08.494Z,3.67
2022-12-08T09:39:10.964Z,2.72
2022-12-08T09:44:39.607Z,2.58
2022-12-08T09:49:55.465Z,2.38
2022-12-08T09:55:01.779Z,3.17
2022-12-08T10:00:07.101Z,3.33
2022-12-08T10:05:14.740Z,3.22
2022-12-08T10:10:26.074Z,3.47
2022-12-08T10:15:59.489Z,3.40
2022-12-08T10:21:19.185Z,2.70
2022-12-08T10:26:23.052Z,3.75
2022-12-08T10:31:25.868Z,1.55
2022-12-08T10:36:58.678Z,3.00
2022-12-08T10:42:16.004Z,3.33
2022-12-08T10:47:22.188Z,2.65
2022-12-08T10:52:25.426Z,2.28
2022-12-08T10:57:27.999Z,2.88
2022-12-08T11:02:30.603Z,2.45
2022-12-08T11:07:53.173Z,3.08
2022-12-08T11:12:58.275Z,3.70
2022-12-08T11:18:06.956Z,3.58
2022-12-08T11:23:24.935Z,3.13
2022-12-08T11:28:29.045Z,2.17
2022-12-08T11:33:31.948Z,1.98
2022-12-08T11:38:41.206Z,2.08
2022-12-08T11:44:17.519Z,2.50
2022-12-08T11:49:20.999Z,2.30
2022-12-08T11:54:39.049Z,3.35
2022-12-08T11:59:46.507Z,2.33
2022-12-08T12:04:58.461Z,4.18
2022-12-08T12:10:01.064Z,3.30
2022-12-08T12:15:18.757Z,3.88
2022-12-08T12:20:39.112Z,3.17
2022-12-08T12:31:01.378Z,2.28
2022-12-08T12:36:07.307Z,2.75
2022-12-08T12:41:12.299Z,2.97
2022-12-08T12:46:41.339Z,3.55
2022-12-08T12:51:48.093Z,3.13
2022-12-08T12:56:54.736Z,3.53
2022-12-08T13:02:15.800Z,2.53
2022-12-08T13:07:24.050Z,2.75
2022-12-08T13:12:28.505Z,3.10
2022-12-08T13:17:34.092Z,3.20
2022-12-08T13:23:12.340Z,3.35
2022-12-08T13:28:31.491Z,3.50
2022-12-08T13:33:41.582Z,3.65
2022-12-08T13:38:47.607Z,2.92
2022-12-08T13:56:05.465Z,2.75
2022-12-08T14:00:18.413Z,2.85
2022-12-08T14:05:35.245Z,3.20
2022-12-08T14:10:53.503Z,2.95
2022-12-08T14:15:56.096Z,3.08
2022-12-08T14:21:20.647Z,2.10
2022-12-08T14:26:23.564Z,2.97
2022-12-08T14:31:27.663Z,2.58
2022-12-08T14:36:30.506Z,2.50
2022-12-08T14:41:33.673Z,2.75
2022-12-08T14:47:09.268Z,2.80
2022-12-08T14:52:12.743Z,2.50
2022-12-08T14:57:15.909Z,2.20
2022-12-08T15:02:27.393Z,3.08
2022-12-08T15:07:35.635Z,2.53
2022-12-08T15:12:38.231Z,3.33
2022-12-08T15:17:40.650Z,2.38
2022-12-08T15:22:43.367Z,2.50
2022-12-08T15:27:50.419Z,2.88
2022-12-08T15:33:00.635Z,3.28
2022-12-08T15:38:03.182Z,2.75
2022-12-08T15:43:05.691Z,2.53
2022-12-08T15:48:13.914Z,3.05
2022-12-08T16:09:14.717Z,3.63
2022-12-08T16:15:23.019Z,2.88
2022-12-08T16:19:39.789Z,2.92
2022-12-08T16:24:42.290Z,3.10
2022-12-08T16:29:48.489Z,2.50
2022-12-08T16:34:51.446Z,3.40
2022-12-08T16:39:55.940Z,1.88
2022-12-08T16:44:58.919Z,2.38
2022-12-08T16:50:03.933Z,2.40
2022-12-08T16:55:19.558Z,1.75
2022-12-08T17:00:24.740Z,2.10
2022-12-08T17:05:27.765Z,2.22
2022-12-08T17:10:34.635Z,1.80
2022-12-08T17:15:37.131Z,1.52
2022-12-08T17:20:40.693Z,1.98
2022-12-08T17:25:43.173Z,2.15
2022-12-08T17:30:45.628Z,1.63
2022-12-08T17:35:53.085Z,1.38
2022-12-08T17:40:58.624Z,2.35
2022-12-08T17:46:01.747Z,1.00
2022-12-08T17:51:09.098Z,1.90
2022-12-08T17:56:21.491Z,2.03
2022-12-08T18:01:24.443Z,2.33
2022-12-08T18:06:31.081Z,1.10
2022-12-08T18:11:35.766Z,1.38
2022-12-08T18:16:40.568Z,0.90
2022-12-08T18:21:43.813Z,1.67
2022-12-08T18:26:46.604Z,1.75
2022-12-08T18:31:50.105Z,1.58
2022-12-08T18:36:53.090Z,1.10
2022-12-08T18:41:57.839Z,1.10
2022-12-08T18:47:00.573Z,0.95
2022-12-08T18:52:03.113Z,0.88
2022-12-08T18:57:06.375Z,0.80
2022-12-08T19:02:10.553Z,0.80
2022-12-08T19:07:13.848Z,0.70
2022-12-08T19:12:16.481Z,0.45
2022-12-08T19:17:26.171Z,0.57
2022-12-08T19:22:28.789Z,0.85
2022-12-08T19:27:47.884Z,0.73
2022-12-08T19:32:51.163Z,0.73
2022-12-08T19:37:55.079Z,0.73
2022-12-08T19:43:16.451Z,0.70
2022-12-08T19:48:18.947Z,0.43
2022-12-08T19:53:21.451Z,0.73
2022-12-08T19:58:24.013Z,0.38
2022-12-08T20:03:26.674Z,0.60
2022-12-08T20:08:29.320Z,0.50
2022-12-08T20:13:52.161Z,0.40
2022-12-08T20:18:54.798Z,0.50
2022-12-08T20:23:57.320Z,0.55
2022-12-08T20:28:59.843Z,0.30
2022-12-08T20:34:02.503Z,0.65
2022-12-08T20:39:05.054Z,0.60
2022-12-08T20:44:07.999Z,0.60
2022-12-08T20:49:10.560Z,0.40
2022-12-08T20:54:13.300Z,0.50
2022-12-08T20:59:18.298Z,0.50
2022-12-08T21:04:21.955Z,0.28
2022-12-08T21:09:24.762Z,0.35
2022-12-08T21:14:27.619Z,0.40
2022-12-08T21:19:30.391Z,0.40
2022-12-08T21:24:34.765Z,0.77
2022-12-08T21:29:37.422Z,0.52
2022-12-08T21:34:40.077Z,0.43
2022-12-08T21:39:57.542Z,0.65
2022-12-08T21:45:00.186Z,0.80
2022-12-08T21:50:03.129Z,0.63
2022-12-08T21:55:07.136Z,0.50
2022-12-08T22:00:13.707Z,0.47
2022-12-08T22:05:16.420Z,0.50
2022-12-08T22:10:21.195Z,0.73
2022-12-08T22:15:23.692Z,0.75
2022-12-08T22:20:26.340Z,0.75
2022-12-08T22:25:28.848Z,0.82
2022-12-08T22:30:37.205Z,1.00
2022-12-08T22:35:41.402Z,0.95
2022-12-08T22:40:44.030Z,1.33
2022-12-08T22:45:46.972Z,0.85
2022-12-08T22:50:49.660Z,1.08
2022-12-08T22:55:52.304Z,0.95
2022-12-08T23:00:55.013Z,0.73
2022-12-08T23:05:58.060Z,1.25
2022-12-08T23:11:00.664Z,1.08
2022-12-08T23:16:03.229Z,1.20
2022-12-08T23:21:07.853Z,1.25
2022-12-08T23:26:27.931Z,0.65
2022-12-08T23:31:31.177Z,1.27
2022-12-08T23:36:33.907Z,1.27
2022-12-08T23:41:36.470Z,0.70
2022-12-08T23:46:39.242Z,1.10
2022-12-08T23:51:41.933Z,1.10
2022-12-08T23:56:44.579Z,1.25
